createdAt,value
2022-08-07T05:46:14.403Z,48.93
2022-08-07T05:47:18.552Z,48.85
2022-08-07T05:48:14.896Z,48.73
2022-08-07T05:49:15.122Z,48.38
2022-08-07T05:50:15.432Z,47.39
2022-08-07T05:51:15.755Z,47.07
2022-08-07T05:52:16.039Z,47.34
2022-08-07T05:54:13.486Z,46.11
2022-08-07T05:54:30.552Z,45.05
2022-08-07T05:55:17.843Z,45.27
2022-08-07T05:56:17.107Z,45.64
2022-08-07T05:57:17.373Z,44.35
2022-08-07T05:58:17.625Z,45.07
2022-08-07T05:59:18.907Z,45.07
2022-08-07T06:00:18.189Z,45.54
2022-08-07T06:01:18.568Z,43.82
2022-08-07T06:02:21.856Z,43.55
2022-08-07T06:03:20.116Z,41.02
2022-08-07T06:04:19.465Z,41.57
2022-08-07T06:05:19.779Z,40.15
2022-08-07T06:06:20.964Z,38.91
2022-08-07T06:07:23.064Z,38.49
2022-08-07T06:08:30.888Z,36.90
2022-08-07T06:09:21.900Z,36.49
2022-08-07T06:10:22.242Z,35.88
2022-08-07T06:11:21.448Z,37.16
2022-08-07T06:12:27.965Z,35.95
2022-08-07T06:14:10.941Z,35.67
2022-08-07T06:14:28.684Z,35.24
2022-08-07T06:15:39.362Z,34.90
2022-08-07T06:16:24.050Z,36.77
2022-08-07T06:17:30.570Z,36.55
2022-08-07T06:18:24.706Z,35.64
2022-08-07T06:19:51.858Z,34.52
2022-08-07T06:20:50.024Z,34.39
2022-08-07T06:22:14.841Z,33.79
2022-08-07T06:22:27.342Z,33.10
2022-08-07T06:24:37.492Z,33.39
2022-08-07T06:24:52.511Z,33.18
2022-08-07T06:25:26.744Z,32.22
2022-08-07T06:26:27.801Z,33.53
2022-08-07T06:27:43.731Z,32.81
2022-08-07T06:28:28.578Z,32.48
2022-08-07T06:29:26.823Z,32.17
2022-08-07T06:30:35.648Z,31.36
2022-08-07T06:31:46.924Z,32.20
2022-08-07T06:32:29.217Z,31.94
2022-08-07T06:33:29.770Z,34.21
2022-08-07T06:34:30.454Z,33.38
2022-08-07T06:35:38.901Z,31.20
2022-08-07T06:36:35.570Z,31.78
2022-08-07T06:37:44.063Z,30.30
2022-08-07T06:38:30.539Z,31.26
2022-08-07T06:40:15.953Z,30.93
2022-08-07T06:40:34.391Z,29.47
2022-08-07T06:42:02.794Z,30.03
2022-08-07T06:42:35.007Z,29.53
2022-08-07T06:43:39.185Z,29.81
2022-08-07T06:44:34.230Z,29.49
2022-08-07T06:45:31.603Z,28.99
2022-08-07T06:46:35.485Z,28.50
2022-08-07T06:47:48.405Z,28.19
2022-08-07T06:48:33.518Z,28.18
2022-08-07T06:49:32.776Z,26.72
2022-08-07T06:50:33.049Z,29.00
2022-08-07T06:51:33.893Z,30.44
2022-08-07T06:52:35.989Z,33.00
2022-08-07T06:54:12.189Z,31.67
2022-08-07T06:55:31.422Z,30.24
2022-08-07T06:56:00.489Z,29.13
2022-08-07T06:56:35.749Z,27.94
2022-08-07T06:57:43.433Z,27.04
2022-08-07T06:58:36.448Z,26.82
2022-08-07T07:00:13.311Z,27.19
2022-08-07T07:00:37.055Z,27.08
2022-08-07T07:01:42.005Z,26.49
2022-08-07T07:02:53.780Z,26.46
2022-08-07T07:03:47.529Z,24.92
2022-08-07T07:04:38.217Z,25.67
2022-08-07T07:06:04.236Z,26.98
2022-08-07T07:06:39.368Z,28.42
2022-08-07T07:07:59.947Z,30.27
2022-08-07T07:08:39.857Z,32.63
2022-08-07T07:09:39.862Z,30.91
2022-08-07T07:10:39.026Z,30.08
2022-08-07T07:12:08.309Z,28.93
2022-08-07T07:12:41.770Z,28.00
2022-08-07T07:13:58.044Z,25.95
2022-08-07T07:14:41.186Z,27.98
2022-08-07T07:15:40.468Z,27.29
2022-08-07T07:16:49.731Z,26.90
2022-08-07T07:17:45.347Z,27.28
2022-08-07T07:18:48.127Z,26.01
2022-08-07T07:19:57.817Z,26.29
2022-08-07T07:20:42.786Z,25.70
2022-08-07T07:22:04.609Z,24.91
2022-08-07T07:24:06.193Z,25.27
2022-08-07T07:24:10.987Z,25.15
2022-08-07T07:24:57.042Z,24.84
2022-08-07T07:26:34.908Z,24.44
2022-08-07T07:26:49.744Z,24.54
2022-08-07T07:28:01.940Z,22.89
2022-08-07T07:29:38.407Z,23.47
2022-08-07T07:30:07.425Z,22.60
2022-08-07T07:30:45.748Z,23.10
2022-08-07T07:31:46.630Z,23.22
2022-08-07T07:32:45.257Z,24.50
2022-08-07T07:33:54.915Z,23.65
2022-08-07T07:34:48.644Z,24.84
2022-08-07T07:36:03.989Z,24.55
2022-08-07T07:36:47.692Z,24.45
2022-08-07T07:38:02.106Z,24.68
2022-08-07T07:38:47.960Z,24.40
2022-08-07T07:39:54.954Z,25.76
2022-08-07T07:40:48.546Z,24.29
2022-08-07T07:41:50.695Z,24.38
2022-08-07T07:42:53.798Z,23.38
2022-08-07T07:44:17.840Z,23.42
2022-08-07T07:44:49.898Z,24.23
2022-08-07T07:46:36.990Z,24.90
2022-08-07T07:46:55.848Z,24.48
2022-08-07T07:47:52.587Z,23.19
2022-08-07T07:48:50.056Z,24.27
2022-08-07T07:50:35.221Z,23.96
2022-08-07T07:50:51.511Z,23.83
2022-08-07T07:51:58.357Z,25.15
2022-08-07T07:52:52.152Z,27.65
2022-08-07T07:53:52.770Z,27.49
2022-08-07T07:54:52.302Z,29.68
2022-08-07T07:55:54.958Z,27.56
2022-08-07T07:56:53.176Z,28.14
2022-08-07T07:57:58.107Z,27.58
2022-08-07T07:58:54.451Z,26.25
2022-08-07T07:59:53.826Z,24.73
2022-08-07T08:00:54.092Z,24.79
2022-08-07T08:02:03.602Z,24.01
2022-08-07T08:03:04.690Z,23.50
2022-08-07T08:04:09.797Z,23.18
2022-08-07T08:04:55.715Z,22.77
2022-08-07T08:05:55.756Z,21.15
2022-08-07T08:06:55.224Z,21.06
2022-08-07T08:08:00.994Z,21.24
2022-08-07T08:08:56.718Z,22.02
2022-08-07T08:10:05.097Z,21.92
2022-08-07T08:10:57.252Z,23.07
2022-08-07T08:12:02.273Z,25.12
2022-08-07T08:13:00.043Z,25.31
2022-08-07T08:13:57.073Z,25.41
2022-08-07T08:14:57.435Z,25.20
2022-08-07T08:16:00.668Z,24.67
2022-08-07T08:16:57.977Z,24.33
2022-08-07T08:18:00.135Z,23.49
2022-08-07T08:19:00.306Z,25.09
2022-08-07T08:20:17.173Z,25.54
2022-08-07T08:21:00.290Z,27.40
2022-08-07T08:22:03.137Z,26.81
2022-08-07T08:22:59.799Z,26.31
2022-08-07T08:24:00.102Z,25.43
2022-08-07T08:25:18.744Z,26.34
2022-08-07T08:27:01.925Z,26.02
2022-08-07T08:27:20.568Z,26.13
2022-08-07T08:28:03.977Z,26.39
2022-08-07T08:29:01.490Z,25.51
2022-08-07T08:30:02.999Z,26.90
2022-08-07T08:31:02.099Z,29.56
2022-08-07T08:32:18.567Z,28.91
2022-08-07T08:33:03.669Z,28.54
2022-08-07T08:34:02.927Z,30.24
2022-08-07T08:35:03.234Z,30.68
2022-08-07T08:36:03.427Z,28.36
2022-08-07T08:37:03.791Z,27.90
2022-08-07T08:38:05.146Z,29.20
2022-08-07T08:39:04.419Z,28.94
2022-08-07T08:40:04.713Z,27.83
2022-08-07T08:41:05.979Z,26.82
2022-08-07T08:42:05.284Z,26.34
2022-08-07T08:43:05.560Z,28.25
2022-08-07T08:44:05.850Z,28.39
2022-08-07T08:45:06.225Z,26.98
2022-08-07T08:46:08.254Z,26.79
2022-08-07T08:47:09.919Z,27.36
2022-08-07T08:48:06.994Z,25.97
2022-08-07T08:49:07.333Z,25.59
2022-08-07T08:50:07.616Z,26.18
2022-08-07T08:51:14.581Z,28.09
2022-08-07T08:52:13.815Z,31.28
2022-08-07T08:53:09.445Z,32.26
2022-08-07T08:54:08.708Z,32.05
2022-08-07T08:55:08.954Z,32.17
2022-08-07T08:56:09.262Z,33.77
2022-08-07T08:57:09.518Z,32.51
2022-08-07T08:58:13.095Z,32.75
2022-08-07T08:59:13.800Z,33.25
2022-08-07T09:00:11.293Z,35.15
2022-08-07T09:01:14.811Z,34.88
2022-08-07T09:02:11.881Z,35.17
2022-08-07T09:03:11.145Z,34.89
2022-08-07T09:04:11.451Z,36.11
2022-08-07T09:05:11.789Z,37.00
2022-08-07T09:06:12.088Z,37.48
2022-08-07T09:07:12.347Z,37.68
2022-08-07T09:08:12.616Z,38.67
2022-08-07T09:09:21.137Z,37.77
2022-08-07T09:10:14.257Z,38.67
2022-08-07T09:11:13.957Z,38.39
2022-08-07T09:12:30.206Z,38.59
2022-08-07T09:13:15.119Z,38.90
2022-08-07T09:14:14.357Z,39.20
2022-08-07T09:16:24.119Z,38.62
2022-08-07T09:16:24.818Z,38.01
2022-08-07T09:17:16.230Z,40.50
2022-08-07T09:18:22.506Z,40.80
2022-08-07T09:19:52.339Z,40.03
2022-08-07T09:20:35.182Z,39.55
2022-08-07T09:21:57.857Z,40.44
2022-08-07T09:24:27.523Z,40.96
2022-08-07T09:24:32.872Z,39.98
2022-08-07T09:24:33.733Z,40.17
2022-08-07T09:25:18.702Z,39.51
2022-08-07T09:26:20.850Z,39.75
2022-08-07T09:27:18.276Z,40.56
2022-08-07T09:30:02.095Z,41.16
2022-08-07T09:30:04.953Z,41.38
2022-08-07T09:30:20.699Z,41.39
2022-08-07T09:31:20.470Z,41.12
2022-08-07T09:32:21.001Z,42.55
2022-08-07T09:33:40.655Z,42.45
2022-08-07T09:34:21.300Z,43.07
2022-08-07T09:36:05.384Z,43.37
2022-08-07T09:36:21.838Z,43.87
2022-08-07T09:37:48.519Z,42.95
2022-08-07T09:38:23.192Z,41.88
2022-08-07T09:39:52.906Z,42.47
2022-08-07T09:40:23.131Z,43.57
2022-08-07T09:41:22.454Z,43.75
2022-08-07T09:42:24.892Z,44.54
2022-08-07T09:43:40.342Z,45.02
2022-08-07T09:44:40.213Z,40.34
2022-08-07T09:47:23.589Z,40.16
2022-08-07T09:47:37.243Z,41.47
2022-08-07T09:48:00.367Z,43.57
2022-08-07T09:48:30.222Z,42.37
2022-08-07T09:50:02.604Z,41.66
2022-08-07T09:50:26.417Z,42.35
2022-08-07T09:52:15.997Z,41.06
2022-08-07T09:52:34.473Z,41.16
2022-08-07T09:53:27.239Z,41.83
2022-08-07T09:54:28.285Z,41.83
2022-08-07T09:55:36.959Z,42.03
2022-08-07T09:56:37.274Z,41.03
2022-08-07T09:57:28.788Z,43.01
2022-08-07T09:58:32.198Z,42.61
2022-08-07T09:59:44.350Z,43.71
2022-08-07T10:00:30.066Z,43.19
2022-08-07T10:01:50.359Z,41.89
2022-08-07T10:02:31.592Z,41.71
2022-08-07T10:04:06.491Z,39.70
2022-08-07T10:04:32.933Z,39.92
2022-08-07T10:05:59.461Z,40.52
2022-08-07T10:06:31.205Z,39.62
2022-08-07T10:07:31.805Z,39.92
2022-08-07T10:08:31.663Z,39.74
2022-08-07T10:09:42.934Z,39.34
2022-08-07T10:10:48.277Z,40.56
2022-08-07T10:12:01.754Z,41.46
2022-08-07T10:12:32.839Z,40.16
2022-08-07T10:14:00.220Z,40.76
2022-08-07T10:14:33.489Z,41.36
2022-08-07T10:15:44.029Z,41.63
2022-08-07T10:16:34.069Z,42.63
2022-08-07T10:18:00.770Z,42.51
2022-08-07T10:18:35.363Z,42.19
2022-08-07T10:19:37.752Z,39.70
2022-08-07T10:20:35.126Z,39.90
2022-08-07T10:22:15.134Z,39.42
2022-08-07T10:22:36.632Z,39.74
2022-08-07T10:24:05.847Z,40.84
2022-08-07T10:24:38.209Z,40.62
2022-08-07T10:25:43.257Z,41.22
2022-08-07T10:26:36.715Z,41.71
2022-08-07T10:27:46.646Z,40.92
2022-08-07T10:28:37.235Z,38.53
2022-08-07T10:29:40.423Z,38.81
2022-08-07T10:30:37.775Z,39.01
2022-08-07T10:31:38.491Z,39.03
2022-08-07T10:32:52.381Z,37.93
2022-08-07T10:34:06.718Z,37.93
2022-08-07T10:34:38.906Z,37.65
2022-08-07T10:35:55.593Z,39.62
2022-08-07T10:36:39.437Z,42.01
2022-08-07T10:38:00.639Z,39.11
2022-08-07T10:38:48.197Z,37.71
2022-08-07T10:39:41.447Z,38.89
2022-08-07T10:40:39.641Z,40.68
2022-08-07T10:41:46.633Z,39.37
2022-08-07T10:42:41.097Z,40.06
2022-08-07T10:43:40.396Z,37.38
2022-08-07T10:44:40.585Z,39.37
2022-08-07T10:45:44.944Z,38.77
2022-08-07T10:46:42.087Z,40.26
2022-08-07T10:47:53.606Z,38.77
2022-08-07T10:48:44.182Z,38.67
2022-08-07T10:49:49.307Z,38.67
2022-08-07T10:50:49.925Z,37.88
2022-08-07T10:52:02.248Z,38.09
2022-08-07T10:52:48.623Z,38.09
2022-08-07T10:53:44.887Z,39.09
2022-08-07T10:54:53.358Z,38.21
2022-08-07T10:55:44.607Z,38.51
2022-08-07T10:56:43.861Z,39.11
2022-08-07T10:57:44.090Z,38.71
2022-08-07T10:58:46.209Z,39.21
2022-08-07T10:59:47.326Z,39.31
2022-08-07T11:00:50.588Z,38.99
2022-08-07T11:01:52.049Z,41.28
2022-08-07T11:02:49.460Z,40.78
2022-08-07T11:03:52.560Z,40.76
2022-08-07T11:04:47.184Z,43.74
2022-08-07T11:05:50.789Z,41.66
2022-08-07T11:06:46.770Z,41.06
2022-08-07T11:07:58.507Z,41.04
2022-08-07T11:08:48.317Z,41.44
2022-08-07T11:10:09.642Z,39.65
2022-08-07T11:12:03.825Z,37.76
2022-08-07T11:13:04.066Z,38.35
2022-08-07T11:14:45.535Z,37.28
2022-08-07T11:15:09.657Z,37.20
2022-08-07T11:16:07.165Z,38.21
2022-08-07T11:17:07.340Z,37.81
2022-08-07T11:18:05.410Z,38.11
2022-08-07T11:19:06.943Z,37.51
2022-08-07T11:20:05.865Z,37.92
2022-08-07T11:21:06.167Z,38.51
2022-08-07T11:22:06.406Z,39.09
2022-08-07T11:23:09.149Z,39.59
2022-08-07T11:24:08.505Z,40.36
2022-08-07T11:25:07.425Z,38.18
2022-08-07T11:26:07.516Z,37.68
2022-08-07T11:27:07.847Z,38.97
2022-08-07T11:28:09.239Z,38.97
2022-08-07T11:29:13.110Z,37.66
2022-08-07T11:30:18.770Z,38.56
2022-08-07T11:31:11.635Z,41.04
2022-08-07T11:32:09.330Z,39.25
2022-08-07T11:33:14.309Z,38.06
2022-08-07T11:34:10.942Z,39.05
2022-08-07T11:35:10.091Z,38.65
2022-08-07T11:36:10.313Z,37.66
2022-08-07T11:37:11.660Z,37.36
2022-08-07T11:38:12.719Z,36.47
2022-08-07T11:39:14.627Z,36.66
2022-08-07T11:40:12.492Z,37.58
2022-08-07T11:41:22.269Z,37.86
2022-08-07T11:42:16.852Z,37.46
2022-08-07T11:43:15.551Z,37.76
2022-08-07T11:44:14.367Z,37.56
2022-08-07T11:45:14.001Z,38.45
2022-08-07T11:46:13.252Z,41.14
2022-08-07T11:47:13.523Z,38.93
2022-08-07T11:48:26.730Z,38.93
2022-08-07T11:49:50.658Z,38.24
2022-08-07T11:50:31.263Z,37.45
2022-08-07T11:51:41.575Z,36.85
2022-08-07T11:52:16.072Z,37.26
2022-08-07T11:53:15.363Z,38.16
2022-08-07T11:54:15.662Z,37.76
2022-08-07T11:56:09.619Z,37.15
2022-08-07T11:56:26.366Z,36.66
2022-08-07T11:57:17.507Z,36.68
2022-08-07T11:58:16.761Z,37.98
2022-08-07T12:00:08.966Z,38.28
2022-08-07T12:00:19.700Z,42.25
2022-08-07T12:01:20.311Z,40.64
2022-08-07T12:02:29.945Z,41.04
2022-08-07T12:03:45.142Z,43.02
2022-08-07T12:04:19.483Z,39.95
2022-08-07T12:05:28.689Z,39.63
2022-08-07T12:06:36.944Z,40.22
2022-08-07T12:07:26.989Z,38.54
2022-08-07T12:08:31.515Z,37.15
2022-08-07T12:09:23.748Z,38.81
2022-08-07T12:10:20.274Z,39.01
2022-08-07T12:11:22.442Z,37.82
2022-08-07T12:12:20.908Z,37.92
2022-08-07T12:13:35.648Z,37.82
2022-08-07T12:14:22.465Z,38.32
2022-08-07T12:15:35.771Z,37.43
2022-08-07T12:16:30.688Z,37.62
2022-08-07T12:17:23.311Z,36.53
2022-08-07T12:18:29.933Z,37.13
2022-08-07T12:19:23.830Z,36.53
2022-08-07T12:20:30.648Z,36.93
2022-08-07T12:22:36.004Z,36.94
2022-08-07T12:22:37.446Z,37.13
2022-08-07T12:24:05.781Z,36.35
2022-08-07T12:24:37.898Z,36.55
2022-08-07T12:26:21.371Z,36.87
2022-08-07T12:26:29.819Z,37.48
2022-08-07T12:27:28.019Z,37.68
2022-08-07T12:28:31.050Z,37.38
2022-08-07T12:29:37.570Z,38.18
2022-08-07T12:30:27.278Z,37.98
2022-08-07T12:31:26.508Z,38.67
2022-08-07T12:32:27.817Z,41.44
2022-08-07T12:33:31.010Z,42.72
2022-08-07T12:34:28.328Z,40.74
2022-08-07T12:35:29.384Z,38.93
2022-08-07T12:36:33.471Z,38.34
2022-08-07T12:38:09.150Z,38.71
2022-08-07T12:38:42.774Z,37.62
2022-08-07T12:39:43.001Z,37.13
2022-08-07T12:40:47.183Z,37.92
2022-08-07T12:41:49.275Z,37.32
2022-08-07T12:42:32.194Z,38.32
2022-08-07T12:44:01.935Z,37.13
2022-08-07T12:44:31.356Z,37.43
2022-08-07T12:45:30.653Z,37.23
2022-08-07T12:46:32.371Z,37.15
2022-08-07T12:47:31.838Z,37.34
2022-08-07T12:48:41.673Z,36.65
2022-08-07T12:49:44.254Z,37.54
2022-08-07T12:50:39.674Z,37.45
2022-08-07T12:51:51.534Z,37.34
2022-08-07T12:52:34.083Z,38.14
2022-08-07T12:54:03.103Z,38.54
2022-08-07T12:54:37.951Z,38.32
2022-08-07T12:55:41.132Z,36.83
2022-08-07T12:56:34.998Z,37.23
2022-08-07T12:58:01.202Z,37.72
2022-08-07T12:58:35.695Z,37.52
2022-08-07T12:59:55.526Z,37.62
2022-08-07T13:00:49.674Z,38.02
2022-08-07T13:01:36.444Z,37.72
2022-08-07T13:02:35.752Z,37.03
2022-08-07T13:03:59.276Z,36.85
2022-08-07T13:04:37.218Z,37.64
2022-08-07T13:06:03.481Z,37.74
2022-08-07T13:06:54.295Z,37.82
2022-08-07T13:08:12.331Z,37.62
2022-08-07T13:08:38.317Z,38.42
2022-08-07T13:10:21.532Z,37.81
2022-08-07T13:10:44.020Z,37.30
2022-08-07T13:12:03.575Z,38.90
2022-08-07T13:12:39.486Z,37.30
2022-08-07T13:13:48.734Z,37.52
2022-08-07T13:14:50.847Z,37.11
2022-08-07T13:15:40.407Z,36.61
2022-08-07T13:16:39.628Z,36.81
2022-08-07T13:17:41.123Z,37.51
2022-08-07T13:18:40.220Z,38.60
2022-08-07T13:19:50.426Z,40.86
2022-08-07T13:20:41.758Z,39.47
2022-08-07T13:21:55.052Z,40.07
2022-08-07T13:22:42.318Z,38.38
2022-08-07T13:24:00.711Z,36.79
2022-08-07T13:24:43.978Z,36.60
2022-08-07T13:25:43.147Z,37.79
2022-08-07T13:26:46.321Z,39.47
2022-08-07T13:28:10.951Z,39.37
2022-08-07T13:28:44.058Z,40.86
2022-08-07T13:29:46.977Z,39.97
2022-08-07T13:30:48.672Z,40.17
2022-08-07T13:31:55.018Z,37.88
2022-08-07T13:32:45.148Z,37.09
2022-08-07T13:34:32.032Z,37.39
2022-08-07T13:34:48.574Z,36.88
2022-08-07T13:36:01.317Z,37.17
2022-08-07T13:36:46.319Z,38.07
2022-08-07T13:37:59.113Z,36.77
2022-08-07T13:38:47.002Z,36.98
2022-08-07T13:40:32.779Z,36.68
2022-08-07T13:40:47.450Z,36.18
2022-08-07T13:41:48.004Z,36.30
2022-08-07T13:42:47.040Z,37.09
2022-08-07T13:43:52.730Z,36.50
2022-08-07T13:45:20.488Z,36.50
2022-08-07T13:46:11.893Z,36.40
2022-08-07T13:46:50.140Z,36.40
2022-08-07T13:48:06.854Z,37.09
2022-08-07T13:48:58.297Z,36.20
2022-08-07T13:50:34.508Z,36.20
2022-08-07T13:51:01.286Z,37.09
2022-08-07T13:52:05.565Z,39.07
2022-08-07T13:52:51.155Z,37.09
2022-08-07T13:53:59.838Z,36.40
2022-08-07T13:54:51.682Z,36.79
2022-08-07T13:55:54.748Z,36.40
2022-08-07T13:56:55.648Z,36.99
2022-08-07T13:58:02.155Z,38.76
2022-08-07T13:58:56.343Z,41.04
2022-08-07T13:59:55.027Z,40.25
2022-08-07T14:00:54.584Z,40.64
2022-08-07T14:02:04.178Z,38.17
2022-08-07T14:02:54.420Z,37.57
2022-08-07T14:04:07.097Z,38.46
2022-08-07T14:04:55.119Z,40.64
2022-08-07T14:05:53.798Z,36.58
2022-08-07T14:06:54.086Z,36.36
2022-08-07T14:08:00.667Z,35.97
2022-08-07T14:08:55.592Z,36.16
2022-08-07T14:10:12.469Z,35.78
2022-08-07T14:11:01.697Z,35.58
2022-08-07T14:12:01.190Z,35.98
2022-08-07T14:12:56.786Z,35.90
2022-08-07T14:13:56.048Z,36.90
2022-08-07T14:14:56.255Z,36.22
2022-08-07T14:15:56.987Z,36.11
2022-08-07T14:16:56.806Z,36.11
2022-08-07T14:18:27.317Z,36.50
2022-08-07T14:18:58.447Z,36.69
2022-08-07T14:20:41.648Z,37.88
2022-08-07T14:20:58.953Z,36.40
2022-08-07T14:22:02.933Z,37.09
2022-08-07T14:22:59.620Z,35.58
2022-08-07T14:24:01.969Z,35.80
2022-08-07T14:24:59.241Z,36.79
2022-08-07T14:25:59.417Z,36.10
2022-08-07T14:26:59.759Z,36.00
2022-08-07T14:28:12.494Z,36.40
2022-08-07T14:29:08.460Z,36.10
2022-08-07T14:30:07.579Z,36.40
2022-08-07T14:31:02.565Z,36.40
2022-08-07T14:32:01.322Z,36.48
2022-08-07T14:33:01.576Z,35.88
2022-08-07T14:34:45.910Z,36.18
2022-08-07T14:35:03.882Z,37.67
2022-08-07T14:36:05.078Z,38.66
2022-08-07T14:37:03.272Z,40.25
2022-08-07T14:38:05.903Z,37.47
2022-08-07T14:39:03.432Z,38.26
2022-08-07T14:41:04.910Z,35.98
2022-08-07T14:42:18.888Z,37.57
2022-08-07T14:43:58.340Z,36.77
2022-08-07T14:44:11.592Z,36.58
2022-08-07T14:45:21.183Z,36.46
2022-08-07T14:46:06.292Z,36.66
2022-08-07T14:48:06.830Z,35.67
2022-08-07T14:49:17.332Z,35.77
2022-08-07T14:51:16.047Z,35.57
2022-08-07T14:52:10.616Z,35.57
2022-08-07T14:53:08.157Z,35.67
2022-08-07T14:55:08.913Z,36.86
2022-08-07T14:56:08.138Z,35.57
2022-08-07T14:57:09.415Z,35.77
2022-08-07T14:58:09.748Z,35.27
2022-08-07T14:59:13.794Z,36.07
2022-08-07T15:00:10.374Z,35.37
2022-08-07T15:02:31.452Z,35.77
2022-08-07T15:03:16.394Z,35.27
2022-08-07T15:04:11.565Z,35.27
2022-08-07T15:05:20.331Z,35.07
2022-08-07T15:06:12.138Z,36.46
2022-08-07T15:07:17.624Z,36.76
2022-08-07T15:08:12.710Z,37.45
2022-08-07T15:09:57.782Z,36.26
2022-08-07T15:10:13.250Z,35.37
2022-08-07T15:11:15.089Z,36.56
2022-08-07T15:13:14.219Z,36.86
2022-08-07T15:14:13.480Z,36.16
2022-08-07T15:15:21.490Z,35.57
2022-08-07T15:16:19.808Z,35.77
2022-08-07T15:17:16.805Z,35.97
2022-08-07T15:18:28.404Z,35.77
2022-08-07T15:20:32.778Z,34.78
2022-08-07T15:21:58.740Z,35.27
2022-08-07T15:22:29.246Z,35.47
2022-08-07T15:25:19.233Z,35.57
2022-08-07T15:26:21.075Z,35.57
2022-08-07T15:27:17.274Z,35.37
2022-08-07T15:28:34.317Z,36.26
2022-08-07T15:30:09.276Z,35.57
2022-08-07T15:30:19.064Z,35.17
2022-08-07T15:32:00.821Z,35.46
2022-08-07T15:32:40.026Z,34.95
2022-08-07T15:33:20.241Z,35.06
2022-08-07T15:34:19.212Z,34.36
2022-08-07T15:35:19.503Z,34.95
2022-08-07T15:36:57.481Z,34.78
2022-08-07T15:37:27.695Z,34.28
2022-08-07T15:38:30.910Z,34.68
2022-08-07T15:39:21.642Z,35.47
2022-08-07T15:40:20.937Z,35.17
2022-08-07T15:42:46.508Z,36.26
2022-08-07T15:43:53.069Z,35.57
2022-08-07T15:44:23.698Z,34.78
2022-08-07T15:45:22.469Z,35.67
2022-08-07T15:46:31.728Z,35.77
2022-08-07T15:48:01.365Z,35.67
2022-08-07T15:48:25.786Z,35.37
2022-08-07T15:49:25.582Z,35.67
2022-08-07T15:52:30.081Z,36.46
2022-08-07T15:53:25.878Z,35.47
2022-08-07T15:54:26.388Z,35.07
2022-08-07T15:56:01.817Z,35.27
2022-08-07T15:56:26.822Z,35.57
2022-08-07T15:57:39.296Z,35.37
2022-08-07T15:58:32.505Z,35.47
2022-08-07T15:59:39.584Z,35.57
2022-08-07T16:00:31.864Z,35.77
2022-08-07T16:01:38.609Z,35.67
2022-08-07T16:02:29.020Z,35.27
2022-08-07T16:03:46.255Z,35.86
2022-08-07T16:04:29.304Z,35.57
2022-08-07T16:05:31.181Z,35.97
2022-08-07T16:06:28.814Z,35.67
2022-08-07T16:08:29.113Z,35.47
2022-08-07T16:08:38.160Z,35.27
2022-08-07T16:09:41.052Z,35.77
2022-08-07T16:10:31.011Z,35.57
2022-08-07T16:11:30.245Z,35.37
2022-08-07T16:12:30.522Z,35.37
2022-08-07T16:13:57.571Z,35.37
2022-08-07T16:14:32.032Z,35.37
2022-08-07T16:15:55.146Z,35.27
2022-08-07T16:16:47.642Z,35.39
2022-08-07T16:18:02.700Z,35.58
2022-08-07T16:18:50.361Z,36.46
2022-08-07T16:19:42.613Z,35.97
2022-08-07T16:20:34.753Z,36.07
2022-08-07T16:22:01.814Z,35.49
2022-08-07T16:22:36.434Z,36.28
2022-08-07T16:23:54.701Z,36.48
2022-08-07T16:24:35.631Z,35.88
2022-08-07T16:25:52.397Z,36.18
2022-08-07T16:26:35.422Z,36.08
2022-08-07T16:27:39.931Z,35.88
2022-08-07T16:30:08.573Z,35.58
2022-08-07T16:30:10.898Z,35.49
2022-08-07T16:30:36.519Z,35.98
2022-08-07T16:31:51.183Z,35.78
2022-08-07T16:32:37.302Z,35.49
2022-08-07T16:34:03.295Z,35.69
2022-08-07T16:34:37.718Z,36.28
2022-08-07T16:35:56.522Z,35.88
2022-08-07T16:37:02.737Z,35.88
2022-08-07T16:38:05.572Z,35.39
2022-08-07T16:39:00.727Z,36.08
2022-08-07T16:39:49.176Z,35.58
2022-08-07T16:40:57.118Z,36.18
2022-08-07T16:41:41.807Z,36.18
2022-08-07T16:42:40.150Z,36.68
2022-08-07T16:44:03.953Z,36.18
2022-08-07T16:45:13.977Z,36.58
2022-08-07T16:46:34.710Z,35.69
2022-08-07T16:47:04.744Z,36.20
2022-08-07T16:47:56.818Z,36.10
2022-08-07T16:48:53.587Z,36.20
2022-08-07T16:50:20.118Z,35.31
2022-08-07T16:51:13.397Z,35.90
2022-08-07T16:52:01.789Z,36.10
2022-08-07T16:52:51.965Z,36.00
2022-08-07T16:54:02.907Z,36.30
2022-08-07T16:54:54.429Z,36.20
2022-08-07T16:55:47.844Z,36.50
2022-08-07T16:56:43.491Z,36.20
2022-08-07T16:58:02.016Z,36.30
2022-08-07T16:59:10.026Z,36.20
2022-08-07T16:59:46.659Z,36.40
2022-08-07T17:00:44.541Z,36.60
2022-08-07T17:01:44.909Z,36.99
2022-08-07T17:02:53.691Z,37.09
2022-08-07T17:03:59.816Z,37.09
2022-08-07T17:04:57.515Z,36.79
2022-08-07T17:06:28.828Z,36.79
2022-08-07T17:06:57.896Z,36.99
2022-08-07T17:07:55.345Z,37.19
2022-08-07T17:10:05.114Z,37.41
2022-08-07T17:10:54.829Z,37.30
2022-08-07T17:12:01.322Z,37.51
2022-08-07T17:12:53.006Z,37.81
2022-08-07T17:14:17.987Z,37.90
2022-08-07T17:14:49.801Z,38.00
2022-08-07T17:15:50.529Z,37.81
2022-08-07T17:16:56.012Z,37.51
2022-08-07T17:17:50.627Z,37.21
2022-08-07T17:18:49.886Z,37.21
2022-08-07T17:20:02.033Z,37.30
2022-08-07T17:20:54.784Z,37.01
2022-08-07T17:21:52.208Z,36.91
2022-08-07T17:22:51.078Z,37.21
2022-08-07T17:23:51.412Z,37.11
2022-08-07T17:24:52.129Z,37.11
2022-08-07T17:25:52.674Z,37.03
2022-08-07T17:26:52.256Z,37.03
2022-08-07T21:55:29.817Z,65.65
2022-08-07T21:56:37.772Z,65.85
2022-08-07T21:57:31.175Z,67.07
2022-08-07T21:58:22.151Z,64.75
2022-08-07T21:59:18.605Z,68.68
2022-08-07T22:00:22.988Z,64.95
2022-08-07T22:01:19.057Z,64.95
2022-08-07T22:02:18.379Z,64.24
2022-08-07T22:03:18.863Z,67.77
2022-08-07T22:04:20.241Z,67.57
2022-08-07T22:05:21.823Z,65.65
2022-08-07T22:06:30.796Z,65.15
2022-08-07T22:07:20.767Z,67.36
2022-08-07T22:08:20.170Z,65.68
2022-08-07T22:09:20.347Z,66.08
2022-08-07T22:11:22.029Z,65.88
2022-08-07T22:12:24.571Z,65.18
2022-08-07T22:13:24.643Z,65.18
2022-08-07T22:14:36.138Z,65.08
2022-08-07T22:16:43.805Z,64.67
2022-08-07T22:16:43.852Z,65.68
2022-08-07T22:17:24.632Z,65.68
2022-08-07T22:18:24.903Z,65.48
2022-08-07T22:19:29.669Z,67.80
2022-08-07T22:20:25.467Z,66.39
2022-08-07T22:21:24.796Z,67.83
2022-08-07T22:22:28.902Z,67.13
2022-08-07T22:23:25.284Z,66.22
2022-08-07T22:24:32.957Z,69.04
2022-08-07T22:25:27.078Z,66.93
2022-08-07T22:26:26.137Z,67.23
2022-08-07T22:27:56.299Z,67.13
2022-08-07T22:28:31.881Z,66.72
2022-08-07T22:29:37.971Z,67.23
2022-08-07T22:30:28.253Z,68.54
2022-08-07T22:31:45.685Z,68.54
2022-08-07T22:32:28.823Z,68.27
2022-08-07T22:33:52.598Z,66.86
2022-08-07T22:34:31.792Z,66.75
2022-08-07T22:35:39.743Z,66.86
2022-08-07T22:36:29.944Z,67.26
2022-08-07T22:38:01.952Z,67.16
2022-08-07T22:38:30.437Z,66.93
2022-08-07T22:39:29.766Z,67.73
2022-08-07T22:40:31.001Z,67.33
2022-08-07T22:42:04.160Z,69.75
2022-08-07T22:42:31.566Z,68.27
2022-08-07T22:43:31.445Z,67.76
2022-08-07T22:44:32.810Z,67.16
2022-08-07T22:46:21.631Z,66.96
2022-08-07T22:47:02.541Z,66.75
2022-08-07T22:47:32.981Z,66.75
2022-08-07T22:48:55.468Z,66.75
2022-08-07T22:49:33.917Z,67.09
2022-08-07T22:50:33.460Z,67.60
2022-08-07T22:51:36.625Z,67.69
2022-08-07T22:52:37.077Z,68.10
2022-08-07T22:54:05.480Z,67.60
2022-08-07T22:54:34.959Z,67.69
2022-08-07T22:55:34.277Z,68.60
2022-08-07T22:56:34.524Z,70.02
2022-08-07T22:57:37.225Z,68.91
2022-08-07T22:58:37.776Z,69.11
2022-08-07T22:59:35.305Z,68.80
2022-08-07T23:00:35.661Z,68.13
2022-08-07T23:01:49.614Z,70.15
2022-08-07T23:02:37.223Z,69.85
2022-08-07T23:03:58.530Z,70.66
2022-08-07T23:04:57.031Z,72.17
2022-08-07T23:06:08.350Z,71.67
2022-08-07T23:06:38.656Z,72.68
2022-08-07T23:07:41.859Z,71.06
2022-08-07T23:08:45.240Z,70.25
2022-08-07T23:10:06.492Z,70.36
2022-08-07T23:10:41.472Z,70.56
2022-08-07T23:11:44.344Z,72.08
2022-08-07T23:12:40.424Z,71.17
2022-08-07T23:13:48.833Z,71.09
2022-08-07T23:14:40.547Z,71.91
2022-08-07T23:16:05.401Z,72.81
2022-08-07T23:16:46.450Z,72.11
2022-08-07T23:17:41.543Z,73.02
2022-08-07T23:18:42.506Z,74.84
2022-08-07T23:19:51.592Z,74.13
2022-08-07T23:20:53.425Z,73.02
2022-08-07T23:21:42.487Z,72.61
2022-08-07T23:22:41.827Z,74.13
2022-08-07T23:24:05.176Z,73.63
2022-08-07T23:24:45.758Z,72.41